Time;durP1;ratioP1;P1;durP2;ratioP2;P2;SDS_P1;SDS_P2;PMS_P1;PMS_P2;Temp;Humidity;BMP_temperature;BMP_pressure;BME280_temperature;BME280_humidity;BME280_pressure;Samples;Min_cycle;Max_cycle;Signal;HPM_P1;HPM_P2
2022/11/19 00:02:15;;;;;;;3.03;2.33;;;;;;;6.68;100.00;153076.22;4991763;28;20455;-87
2022/11/19 00:05:01;;;;;;;3.57;2.30;;;;;;;6.68;100.00;153077.50;4992060;28;20581;-87
2022/11/19 00:07:46;;;;;;;3.20;2.27;;;;;;;6.67;100.00;153073.66;4988000;28;20445;-87
2022/11/19 00:10:33;;;;;;;2.93;2.10;;;;;;;6.67;100.00;153074.91;4990268;28;20603;-87
2022/11/19 00:13:18;;;;;;;2.43;1.80;;;;;;;6.68;100.00;153076.22;4992290;28;20872;-87
2022/11/19 00:16:04;;;;;;;2.57;2.00;;;;;;;6.68;100.00;153076.22;4965074;28;20578;-87
2022/11/19 00:18:51;;;;;;;4.57;2.80;;;;;;;6.67;100.00;153073.66;4992207;28;20461;-85
2022/11/19 00:21:36;;;;;;;1.97;1.77;;;;;;;6.69;100.00;153078.81;4993392;28;20576;-87
2022/11/19 00:24:22;;;;;;;2.53;2.00;;;;;;;6.68;100.00;153077.50;4993662;28;20979;-87
2022/11/19 00:27:07;;;;;;;2.27;1.83;;;;;;;6.66;100.00;153072.38;4989299;28;20453;-86
2022/11/19 00:29:53;;;;;;;2.63;2.20;;;;;;;6.64;100.00;153067.22;4987470;28;20449;-87
2022/11/19 00:32:38;;;;;;;3.00;1.87;;;;;;;6.62;100.00;153060.72;4993298;28;20425;-87
2022/11/19 00:35:25;;;;;;;2.20;1.63;;;;;;;6.64;100.00;153065.91;4997711;28;20448;-87
2022/11/19 00:38:10;;;;;;;2.33;1.70;;;;;;;6.64;100.00;153067.22;4991662;28;20433;-87
2022/11/19 00:40:56;;;;;;;2.83;2.20;;;;;;;6.65;100.00;153069.78;4993105;28;20437;-87
2022/11/19 00:43:46;;;;;;;3.07;2.07;;;;;;;6.63;100.00;153064.63;4993284;28;20751;-87
2022/11/19 00:46:32;;;;;;;3.67;2.00;;;;;;;6.65;100.00;153069.78;4989090;28;20967;-87
2022/11/19 00:49:17;;;;;;;2.10;1.70;;;;;;;6.64;100.00;153065.91;4993225;28;20755;-87
2022/11/19 00:52:04;;;;;;;2.57;1.40;;;;;;;6.63;100.00;153064.63;4993921;28;20488;-87
2022/11/19 00:54:50;;;;;;;2.50;1.70;;;;;;;6.61;100.00;153058.16;4990520;28;20526;-87
2022/11/19 00:57:35;;;;;;;2.40;1.63;;;;;;;6.62;100.00;153060.72;4992327;28;20452;-87
2022/11/19 01:00:20;;;;;;;2.40;1.50;;;;;;;6.61;100.00;153058.16;4991823;28;20842;-87
2022/11/19 01:03:06;;;;;;;2.33;1.30;;;;;;;6.62;100.00;153060.72;4991137;28;20457;-87
2022/11/19 01:05:52;;;;;;;3.03;1.90;;;;;;;6.61;100.00;153058.16;4984672;28;20452;-87
2022/11/19 01:08:38;;;;;;;2.57;1.70;;;;;;;6.58;100.00;153051.72;4980247;28;20442;-87
2022/11/19 01:11:26;;;;;;;1.67;1.40;;;;;;;6.59;100.00;153053.00;4990096;28;20473;-85
2022/11/19 01:14:11;;;;;;;2.20;1.80;;;;;;;6.58;100.00;153050.41;4975374;28;20449;-87
2022/11/19 01:16:57;;;;;;;2.13;1.57;;;;;;;6.57;100.00;153049.13;4989119;28;20527;-87
2022/11/19 01:19:42;;;;;;;2.07;1.30;;;;;;;6.56;100.00;153045.25;4991447;28;20441;-87
2022/11/19 01:22:27;;;;;;;1.60;1.20;;;;;;;6.52;100.00;153034.91;4980465;28;21090;-87
2022/11/19 01:25:14;;;;;;;2.17;1.30;;;;;;;6.53;100.00;153037.50;4980270;28;20457;-87
2022/11/19 01:27:59;;;;;;;2.70;1.27;;;;;;;6.49;100.00;153027.16;4982491;28;20437;-86
2022/11/19 01:30:45;;;;;;;2.07;1.27;;;;;;;6.52;100.00;153034.91;4984278;28;20537;-87
2022/11/19 01:33:30;;;;;;;1.40;1.10;;;;;;;6.51;100.00;153033.63;4975658;28;20488;-87
2022/11/19 01:36:16;;;;;;;1.80;1.27;;;;;;;6.52;100.00;153034.91;4992619;28;20448;-86
2022/11/19 01:39:01;;;;;;;1.97;1.27;;;;;;;6.50;100.00;153031.06;4973845;28;20432;-87
2022/11/19 01:41:48;;;;;;;1.93;1.30;;;;;;;6.49;100.00;153028.47;4986406;28;20529;-87
2022/11/19 01:45:00;;;;;;;2.17;1.10;;;;;;;6.49;100.00;153028.47;4991970;28;20573;-87
2022/11/19 01:47:46;;;;;;;1.37;0.97;;;;;;;6.46;100.00;153020.72;4972970;28;20497;-87
2022/11/19 01:50:33;;;;;;;2.63;1.13;;;;;;;6.46;100.00;153020.72;4997137;28;20912;-86
2022/11/19 01:53:19;;;;;;;1.83;1.50;;;;;;;6.42;100.00;153010.41;4990417;28;20457;-86
2022/11/19 01:56:08;;;;;;;2.00;1.60;;;;;;;6.42;100.00;153009.13;5016120;28;20436;-87
2022/11/19 01:58:58;;;;;;;1.60;1.40;;;;;;;6.43;100.00;153011.72;4995491;28;20998;-86
2022/11/19 02:01:44;;;;;;;2.97;1.57;;;;;;;6.37;100.00;152996.22;4989334;28;20441;-86
2022/11/19 02:04:30;;;;;;;2.00;1.50;;;;;;;6.31;100.00;152980.72;4990152;28;20454;-86
2022/11/19 02:07:15;;;;;;;2.00;1.40;;;;;;;6.31;100.00;152980.72;4992997;28;21071;-86
2022/11/19 02:10:03;;;;;;;2.70;1.90;;;;;;;6.30;100.00;152979.41;4991884;28;20445;-87
2022/11/19 02:12:53;;;;;;;2.40;1.77;;;;;;;6.28;100.00;152972.97;4994990;28;20983;-86
2022/11/19 02:15:44;;;;;;;3.97;2.30;;;;;;;6.28;100.00;152974.28;4995018;28;20460;-86
2022/11/19 02:18:37;;;;;;;3.13;2.20;;;;;;;6.27;100.00;152970.41;4993083;28;20882;-86
2022/11/19 02:21:31;;;;;;;2.90;2.30;;;;;;;6.28;100.00;152972.97;4987746;28;20500;-87
2022/11/19 02:24:27;;;;;;;3.30;2.00;;;;;;;6.23;100.00;152961.38;4995684;28;20432;-86
2022/11/19 02:27:48;;;;;;;3.60;2.20;;;;;;;6.22;100.00;152957.53;4994375;28;20457;-86
2022/11/19 02:30:36;;;;;;;2.10;1.90;;;;;;;6.20;100.00;152952.31;4988390;28;20457;-86
2022/11/19 02:33:24;;;;;;;3.30;2.17;;;;;;;6.19;100.00;152949.78;4994743;28;20468;-86
2022/11/19 02:36:15;;;;;;;3.50;2.53;;;;;;;6.16;100.00;152943.31;4994781;28;20947;-86
2022/11/19 02:39:03;;;;;;;2.90;2.37;;;;;;;6.20;100.00;152952.31;4993384;28;20576;-86
2022/11/19 02:41:53;;;;;;;2.23;1.90;;;;;;;6.22;100.00;152957.53;4995767;28;20637;-86
2022/11/19 02:45:00;;;;;;;3.33;2.53;;;;;;;6.25;100.00;152966.53;4993662;28;20456;-86
2022/11/19 02:47:50;;;;;;;3.50;2.20;;;;;;;6.26;100.00;152967.81;4988954;28;20444;-87
2022/11/19 02:50:37;;;;;;;2.60;1.97;;;;;;;6.30;100.00;152978.16;4982473;28;20504;-86
2022/11/19 02:53:23;;;;;;;2.77;1.97;;;;;;;6.31;100.00;152980.72;4990557;28;20457;-87
2022/11/19 02:56:13;;;;;;;2.80;2.40;;;;;;;6.30;100.00;152979.41;4995756;28;20460;-86
2022/11/19 03:05:09;;;;;;;3.53;2.60;;;;;;;6.31;100.00;152980.72;4995057;28;20573;-86
2022/11/19 03:07:55;;;;;;;2.90;2.40;;;;;;;6.33;100.00;152985.91;4993748;28;20590;-86
2022/11/19 03:10:45;;;;;;;2.53;2.10;;;;;;;6.31;100.00;152980.72;4991623;28;20497;-86
2022/11/19 03:16:43;;;;;;;2.43;2.20;;;;;;;6.34;100.00;152989.78;4986982;28;20477;-86
2022/11/19 03:19:36;;;;;;;3.10;2.43;;;;;;;6.32;100.00;152983.31;4974078;28;20444;-87
2022/11/19 03:22:26;;;;;;;2.67;2.33;;;;;;;6.32;100.00;152984.63;4981650;28;20587;-87
2022/11/19 03:25:17;;;;;;;3.10;2.57;;;;;;;6.32;100.00;152983.31;5007567;28;20907;-87
2022/11/19 03:28:08;;;;;;;3.30;2.43;;;;;;;6.33;100.00;152985.91;4990396;28;20469;-86
2022/11/19 03:30:54;;;;;;;2.83;1.97;;;;;;;6.33;100.00;152985.91;4991292;28;20943;-86
2022/11/19 03:33:41;;;;;;;3.50;2.33;;;;;;;6.33;100.00;152987.16;4993920;28;20440;-86
2022/11/19 03:36:32;;;;;;;3.90;2.67;;;;;;;6.33;100.00;152987.16;4993523;28;20935;-86
2022/11/19 03:39:20;;;;;;;3.53;2.87;;;;;;;6.35;100.00;152991.06;4990528;28;20944;-87
2022/11/19 03:42:06;;;;;;;2.60;2.10;;;;;;;6.38;100.00;152998.81;5006916;28;20439;-87
2022/11/19 03:44:56;;;;;;;2.40;2.10;;;;;;;6.38;100.00;152998.81;5004876;28;20947;-87
2022/11/19 03:47:43;;;;;;;2.70;2.33;;;;;;;6.36;100.00;152994.91;4994251;28;20441;-86
2022/11/19 03:50:30;;;;;;;3.50;2.53;;;;;;;6.38;100.00;152998.81;4992192;28;20456;-87
2022/11/19 03:53:15;;;;;;;4.70;2.60;;;;;;;6.38;100.00;153000.06;4993748;28;20413;-87
2022/11/19 03:56:04;;;;;;;2.63;2.30;;;;;;;6.38;100.00;152998.81;4992389;28;20465;-86
2022/11/19 03:58:49;;;;;;;4.67;2.80;;;;;;;6.37;100.00;152997.53;4992869;28;20862;-87
2022/11/19 04:01:35;;;;;;;2.80;2.23;;;;;;;6.38;100.00;152998.81;4994566;28;20444;-86
2022/11/19 04:04:36;;;;;;;3.03;2.23;;;;;;;6.38;100.00;153000.06;4992656;28;20456;-87
2022/11/19 04:07:22;;;;;;;3.47;2.20;;;;;;;6.37;100.00;152997.53;4993358;28;20437;-87
2022/11/19 04:10:08;;;;;;;2.63;2.23;;;;;;;6.38;100.00;152998.81;4992667;28;20436;-87
2022/11/19 04:12:55;;;;;;;2.50;2.30;;;;;;;6.39;100.00;153002.66;4989817;28;20990;-87
2022/11/19 04:15:40;;;;;;;2.50;1.87;;;;;;;6.39;100.00;153002.66;4988388;28;21022;-87
2022/11/19 04:18:26;;;;;;;3.10;2.30;;;;;;;6.40;100.00;153003.97;4993027;28;20915;-87
2022/11/19 04:21:12;;;;;;;2.43;1.90;;;;;;;6.40;100.00;153003.97;4992734;28;20466;-87
2022/11/19 04:23:57;;;;;;;3.67;2.20;;;;;;;6.38;100.00;153000.06;4990132;28;20971;-87
2022/11/19 04:26:43;;;;;;;3.87;2.43;;;;;;;6.37;100.00;152997.53;4992356;28;20806;-87
2022/11/19 04:29:30;;;;;;;3.80;2.63;;;;;;;6.37;100.00;152997.53;4991324;28;20895;-86
2022/11/19 04:32:15;;;;;;;3.40;2.40;;;;;;;6.38;100.00;152998.81;4991770;28;20460;-87
2022/11/19 04:35:00;;;;;;;2.80;2.50;;;;;;;6.39;100.00;153001.38;4989507;28;20460;-86
2022/11/19 04:37:46;;;;;;;2.47;2.03;;;;;;;6.39;100.00;153001.38;4993083;28;20955;-87
2022/11/19 04:40:31;;;;;;;2.70;2.20;;;;;;;6.40;100.00;153003.97;4991864;28;20464;-87
2022/11/19 04:43:16;;;;;;;3.10;2.10;;;;;;;6.38;100.00;152998.81;4990572;28;20530;-87
2022/11/19 04:46:03;;;;;;;3.20;2.50;;;;;;;6.38;100.00;152998.81;4992537;28;20587;-87
2022/11/19 04:48:48;;;;;;;2.97;2.10;;;;;;;6.38;100.00;153000.06;4978600;28;20489;-87
2022/11/19 04:51:34;;;;;;;3.27;2.43;;;;;;;6.37;100.00;152997.53;4975310;28;20445;-86
2022/11/19 04:54:19;;;;;;;3.57;2.23;;;;;;;6.38;100.00;152998.81;4992099;28;20448;-86
2022/11/19 04:57:04;;;;;;;2.60;2.23;;;;;;;6.38;100.00;153000.06;4976786;28;20429;-87
2022/11/19 04:59:50;;;;;;;3.33;2.63;;;;;;;6.38;100.00;152998.81;4990922;28;20476;-86
2022/11/19 05:02:36;;;;;;;2.60;2.40;;;;;;;6.37;100.00;152996.22;4983139;28;20421;-86
2022/11/19 05:05:22;;;;;;;3.13;2.37;;;;;;;6.36;100.00;152993.63;4992299;28;20947;-86
2022/11/19 05:08:07;;;;;;;3.47;2.50;;;;;;;6.36;100.00;152993.63;4993514;28;20431;-86
2022/11/19 05:10:53;;;;;;;3.87;2.83;;;;;;;6.35;100.00;152992.38;4988003;28;20612;-86
2022/11/19 05:13:38;;;;;;;2.93;2.70;;;;;;;6.34;100.00;152988.47;4977491;28;20649;-86
2022/11/19 05:16:24;;;;;;;3.90;2.80;;;;;;;6.33;100.00;152985.91;4960679;28;20577;-86
2022/11/19 05:19:10;;;;;;;3.90;3.10;;;;;;;6.32;100.00;152983.31;4991741;28;20480;-86
2022/11/19 05:21:55;;;;;;;3.67;3.00;;;;;;;6.29;100.00;152976.88;4992388;28;20561;-76
2022/11/19 05:24:41;;;;;;;3.20;2.53;;;;;;;6.31;100.00;152980.72;5002734;28;20456;-77
2022/11/19 05:27:26;;;;;;;5.13;3.10;;;;;;;6.31;100.00;152982.03;4990607;28;20465;-77
2022/11/19 05:30:12;;;;;;;4.20;3.30;;;;;;;6.30;100.00;152978.16;4992754;28;20460;-77
2022/11/19 05:32:57;;;;;;;5.50;3.53;;;;;;;6.31;100.00;152980.72;4992390;28;20433;-77
2022/11/19 05:35:44;;;;;;;4.70;2.80;;;;;;;6.32;100.00;152983.31;4982259;28;20452;-77
2022/11/19 05:38:29;;;;;;;3.60;3.30;;;;;;;6.31;100.00;152980.72;4991376;28;20977;-77
2022/11/19 05:41:15;;;;;;;5.17;3.00;;;;;;;6.30;100.00;152978.16;4992123;28;20461;-77
2022/11/19 05:44:00;;;;;;;3.50;2.73;;;;;;;6.28;100.00;152974.28;4980897;28;20983;-77
2022/11/19 05:46:45;;;;;;;3.30;2.47;;;;;;;6.25;100.00;152965.28;4987776;28;20904;-77
2022/11/19 05:49:30;;;;;;;4.00;3.20;;;;;;;6.25;100.00;152965.28;4972899;28;20414;-77
2022/11/19 05:52:17;;;;;;;3.73;2.80;;;;;;;6.26;100.00;152967.81;4984912;28;20435;-77
2022/11/19 05:55:03;;;;;;;4.07;2.97;;;;;;;6.23;100.00;152961.38;4984431;28;20519;-77
2022/11/19 05:57:48;;;;;;;5.17;3.30;;;;;;;6.21;100.00;152954.94;4988099;28;20451;-77
2022/11/19 06:00:34;;;;;;;4.83;3.63;;;;;;;6.23;100.00;152961.38;5005881;28;20536;-77
2022/11/19 06:03:19;;;;;;;4.43;3.43;;;;;;;6.24;100.00;152962.66;4986651;28;20453;-77
2022/11/19 06:06:05;;;;;;;3.60;3.07;;;;;;;6.21;100.00;152954.94;4990326;28;20444;-77
2022/11/19 06:08:51;;;;;;;3.73;3.00;;;;;;;6.22;100.00;152957.53;4989436;28;20532;-77
2022/11/19 06:11:49;;;;;;;3.50;2.80;;;;;;;6.22;100.00;152957.53;4975374;28;20496;-77
2022/11/19 06:14:34;;;;;;;3.60;2.70;;;;;;;6.21;100.00;152956.22;4987874;28;20521;-77
2022/11/19 06:17:19;;;;;;;3.13;2.70;;;;;;;6.23;100.00;152960.06;4992477;28;20944;-77
2022/11/19 06:20:07;;;;;;;3.43;2.30;;;;;;;6.25;100.00;152965.28;4991152;28;20568;-76
2022/11/19 06:22:52;;;;;;;3.30;2.50;;;;;;;6.25;100.00;152965.28;4991867;28;20452;-77
2022/11/19 06:25:39;;;;;;;2.87;2.63;;;;;;;6.24;100.00;152962.66;4982875;28;20954;-77
2022/11/19 06:28:24;;;;;;;2.43;2.00;;;;;;;6.21;100.00;152954.94;4992289;28;20437;-77
2022/11/19 06:31:09;;;;;;;3.60;2.87;;;;;;;6.24;100.00;152962.66;4990013;28;20457;-77
2022/11/19 06:33:55;;;;;;;3.17;2.63;;;;;;;6.23;100.00;152960.06;4995337;28;20523;-77
2022/11/19 06:36:40;;;;;;;2.90;2.60;;;;;;;6.21;100.00;152956.22;4994693;28;20449;-76
2022/11/19 06:39:25;;;;;;;3.03;2.13;;;;;;;6.21;100.00;152954.94;4995113;28;20484;-76
2022/11/19 06:45:17;;;;;;;3.67;2.83;;;;;;;6.22;100.00;152958.81;4994646;28;20487;-75
2022/11/19 06:48:02;;;;;;;4.00;2.90;;;;;;;6.21;100.00;152954.94;4995960;28;20456;-76
2022/11/19 06:50:48;;;;;;;3.30;2.50;;;;;;;6.22;100.00;152957.53;4994448;28;20452;-76
2022/11/19 06:53:33;;;;;;;2.60;2.20;;;;;;;6.23;100.00;152960.06;4976840;28;20791;-76
2022/11/19 06:56:19;;;;;;;2.93;2.27;;;;;;;6.25;100.00;152965.28;4979852;28;20461;-76
2022/11/19 06:59:05;;;;;;;3.03;2.30;;;;;;;6.26;100.00;152967.81;4987691;28;20979;-76
2022/11/19 07:01:51;;;;;;;3.37;2.40;;;;;;;6.25;100.00;152965.28;4991449;28;20797;-85
2022/11/19 07:04:37;;;;;;;2.47;2.27;;;;;;;6.29;100.00;152975.56;4990185;28;20933;-85
2022/11/19 07:07:22;;;;;;;3.03;2.50;;;;;;;6.29;100.00;152975.56;4980893;28;20445;-85
2022/11/19 07:10:08;;;;;;;2.83;2.50;;;;;;;6.30;100.00;152978.16;4991325;28;20920;-85
2022/11/19 07:12:54;;;;;;;4.30;2.80;;;;;;;6.30;100.00;152979.41;4982424;28;20485;-85
2022/11/19 07:15:41;;;;;;;3.60;2.30;;;;;;;6.31;100.00;152980.72;4993322;28;20456;-85
2022/11/19 07:18:27;;;;;;;3.40;2.40;;;;;;;6.30;100.00;152978.16;4991762;28;20540;-86
2022/11/19 07:21:12;;;;;;;4.10;2.60;;;;;;;6.31;100.00;152982.03;4991288;28;20536;-84
2022/11/19 07:23:59;;;;;;;3.40;2.73;;;;;;;6.29;100.00;152976.88;4998707;28;20551;-86
2022/11/19 07:26:44;;;;;;;3.00;2.40;;;;;;;6.29;100.00;152975.56;4998473;28;20919;-87
2022/11/19 07:29:29;;;;;;;2.50;2.13;;;;;;;6.28;100.00;152974.28;4993102;28;20460;-86
2022/11/19 07:32:16;;;;;;;4.07;3.13;;;;;;;6.29;100.00;152975.56;4988915;28;20466;-86
2022/11/19 07:35:02;;;;;;;3.70;3.27;;;;;;;6.27;100.00;152971.72;4981634;28;20453;-87
2022/11/19 07:37:47;;;;;;;2.60;1.87;;;;;;;6.29;100.00;152976.88;4991142;28;20955;-86
2022/11/19 07:40:33;;;;;;;4.80;2.10;;;;;;;6.29;100.00;152975.56;4980892;28;20992;-86
2022/11/19 07:43:17;;;;;;;2.70;2.10;;;;;;;6.31;100.00;152980.72;4988201;28;20500;-86
2022/11/19 07:46:05;;;;;;;3.70;2.23;;;;;;;6.35;100.00;152991.06;4990908;28;20421;-86
2022/11/19 07:48:54;;;;;;;3.20;2.10;;;;;;;6.40;100.00;153003.97;4991327;28;20453;-86
2022/11/19 07:51:39;;;;;;;2.30;1.60;;;;;;;6.46;100.00;153019.47;4990468;28;20785;-86
2022/11/19 07:54:25;;;;;;;3.10;2.30;;;;;;;6.54;100.00;153040.13;4991591;28;20460;-85
2022/11/19 07:57:11;;;;;;;3.50;2.83;;;;;;;6.62;100.00;153062.03;4992857;28;20457;-86
2022/11/19 07:59:56;;;;;;;2.70;2.50;;;;;;;6.73;100.00;153089.13;4990779;28;20971;-86
2022/11/19 08:02:42;;;;;;;2.80;2.07;;;;;;;6.82;100.00;153111.06;4991293;28;20445;-86
2022/11/19 08:05:28;;;;;;;3.37;2.00;;;;;;;6.88;100.00;153127.88;4993972;28;20413;-86
2022/11/19 08:08:13;;;;;;;2.70;2.33;;;;;;;6.87;100.00;153125.28;4991805;28;20492;-86
2022/11/19 08:11:04;;;;;;;2.70;2.27;;;;;;;6.93;100.00;153139.47;4986321;28;20449;-86
2022/11/19 08:13:49;;;;;;;2.60;2.00;;;;;;;6.98;100.00;153152.38;4983152;28;21009;-86
2022/11/19 08:19:37;;;;;;;3.00;2.17;;;;;;;7.03;100.00;153166.59;4987261;28;20472;-86
2022/11/19 08:22:24;;;;;;;2.73;2.23;;;;;;;7.07;100.00;153176.91;4976354;28;20762;-87
2022/11/19 08:25:09;;;;;;;3.70;2.50;;;;;;;7.07;100.00;153176.91;4990404;28;20448;-86
2022/11/19 08:27:55;;;;;;;2.83;2.17;;;;;;;7.07;100.00;153176.91;4984339;28;20448;-86
2022/11/19 08:30:41;;;;;;;3.43;3.10;;;;;;;7.08;100.00;153179.50;5000297;28;20507;-86
2022/11/19 08:33:26;;;;;;;3.57;3.00;;;;;;;7.09;100.00;153180.81;5006427;28;20483;-86
2022/11/19 08:36:11;;;;;;;3.07;2.30;;;;;;;7.09;100.00;153182.09;4992426;28;20475;-86
2022/11/19 08:38:59;;;;;;;3.17;2.40;;;;;;;7.14;100.00;153193.72;4992458;28;21145;-86
2022/11/19 08:44:47;;;;;;;3.13;1.50;;;;;;;7.13;100.00;153192.41;4992123;28;20416;-86
2022/11/19 08:47:32;;;;;;;3.00;1.50;;;;;;;7.12;100.00;153188.56;4992705;28;20491;-87
2022/11/19 08:50:18;;;;;;;2.30;1.70;;;;;;;7.09;100.00;153180.81;4987724;28;20438;-86
2022/11/19 08:53:05;;;;;;;1.87;1.53;;;;;;;7.10;100.00;153184.66;4988684;28;20467;-86
2022/11/19 08:55:51;;;;;;;2.10;1.63;;;;;;;7.10;100.00;153184.66;4978586;28;20428;-86
2022/11/19 08:58:37;;;;;;;3.17;1.90;;;;;;;7.14;100.00;153195.00;4989554;28;20476;-86
2022/11/19 09:01:23;;;;;;;2.27;1.60;;;;;;;7.23;100.00;153216.91;4991715;28;20539;-86
2022/11/19 09:04:08;;;;;;;3.43;1.30;;;;;;;7.28;100.00;153231.13;4993666;28;20947;-86
2022/11/19 09:06:53;;;;;;;1.80;1.30;;;;;;;7.36;100.00;153250.50;4995537;28;20472;-86
2022/11/19 09:09:39;;;;;;;2.47;1.60;;;;;;;7.46;100.00;153275.06;4990175;28;20441;-86
2022/11/19 09:12:25;;;;;;;2.43;1.83;;;;;;;7.55;100.00;153298.28;4992746;28;20624;-85
2022/11/19 09:15:11;;;;;;;1.57;1.23;;;;;;;7.62;100.00;153316.41;4992666;28;20460;-85
2022/11/19 09:17:56;;;;;;;2.17;1.60;;;;;;;7.67;100.00;153330.59;4984739;28;20457;-85
2022/11/19 09:20:41;;;;;;;1.73;1.40;;;;;;;7.74;100.00;153347.38;4990662;28;20913;-86
2022/11/19 09:23:27;;;;;;;3.70;1.17;;;;;;;7.77;100.00;153355.13;4988759;28;20508;-86
2022/11/19 09:26:14;;;;;;;1.97;1.40;;;;;;;7.79;100.00;153361.59;4994580;28;21109;-86
2022/11/19 09:29:01;;;;;;;2.10;1.23;;;;;;;7.81;100.00;153366.75;4984223;28;20460;-86
2022/11/19 09:31:46;;;;;;;1.80;1.50;;;;;;;7.86;100.00;153378.41;4994219;28;20441;-85
2022/11/19 09:34:33;;;;;;;1.70;1.17;;;;;;;7.88;100.00;153383.56;4974944;28;20402;-86
2022/11/19 09:37:19;;;;;;;2.80;1.90;;;;;;;7.96;100.00;153404.22;4974593;28;20458;-86
2022/11/19 09:40:07;;;;;;;3.23;1.37;;;;;;;8.02;100.00;153419.75;4980259;28;20967;-86
2022/11/19 09:43:02;;;;;;;2.23;1.30;;;;;;;8.08;100.00;153435.22;4979262;28;20525;-86
2022/11/19 09:45:54;;;;;;;1.33;1.13;;;;;;;8.12;100.00;153445.59;4974848;28;20426;-86
2022/11/19 09:48:39;;;;;;;1.80;1.30;;;;;;;8.09;100.00;153437.81;4993003;28;20539;-86
2022/11/19 09:51:28;;;;;;;2.00;1.53;;;;;;;8.10;100.00;153440.38;4989612;28;20448;-85
2022/11/19 09:54:16;;;;;;;1.50;1.30;;;;;;;8.08;100.00;153435.22;4970692;28;20437;-86
2022/11/19 09:57:04;;;;;;;2.80;1.60;;;;;;;8.02;100.00;153419.75;4990945;28;20768;-86
2022/11/19 09:59:50;;;;;;;2.77;1.57;;;;;;;8.03;100.00;153421.00;4979696;28;20468;-86
2022/11/19 10:02:37;;;;;;;2.33;1.57;;;;;;;8.01;100.00;153417.16;4989320;28;20436;-85
2022/11/19 10:05:29;;;;;;;3.53;1.70;;;;;;;8.02;100.00;153418.44;4984947;28;20437;-86
2022/11/19 10:08:26;;;;;;;2.87;1.57;;;;;;;8.02;100.00;153419.75;4991965;28;20465;-86
2022/11/19 10:11:23;;;;;;;3.20;1.50;;;;;;;8.02;100.00;153418.44;4996309;28;20464;-86
2022/11/19 10:14:15;;;;;;;4.80;1.50;;;;;;;8.01;100.00;153417.16;4989724;28;20449;-86
2022/11/19 10:17:07;;;;;;;3.37;1.63;;;;;;;8.04;100.00;153424.91;4995191;28;20943;-86
2022/11/19 10:20:06;;;;;;;2.40;1.37;;;;;;;8.07;100.00;153432.66;4979801;28;20460;-86
2022/11/19 10:22:57;;;;;;;2.23;1.60;;;;;;;8.03;100.00;153422.31;4994157;28;20464;-86
2022/11/19 10:25:44;;;;;;;2.43;1.70;;;;;;;8.04;100.00;153424.91;4981474;28;20413;-86
2022/11/19 10:28:31;;;;;;;2.50;1.67;;;;;;;8.06;100.00;153430.06;4990808;28;20476;-86
2022/11/19 10:31:19;;;;;;;2.00;1.50;;;;;;;8.09;100.00;153436.53;4986780;28;20799;-86
2022/11/19 10:34:10;;;;;;;3.60;1.80;;;;;;;8.10;100.00;153440.38;4996996;28;20445;-86
2022/11/19 10:36:59;;;;;;;1.87;1.47;;;;;;;8.15;100.00;153453.34;4996798;28;20449;-86
2022/11/19 10:39:48;;;;;;;3.23;2.20;;;;;;;8.15;100.00;153452.03;4996147;28;20476;-86
2022/11/19 10:42:35;;;;;;;2.10;1.50;;;;;;;8.18;100.00;153459.81;4977804;28;20919;-85
2022/11/19 10:45:23;;;;;;;2.07;1.30;;;;;;;8.23;100.00;153474.03;4982489;28;20460;-86
2022/11/19 10:48:13;;;;;;;3.07;2.10;;;;;;;8.28;100.00;153485.69;4977546;28;20504;-86
2022/11/19 10:50:59;;;;;;;2.23;1.53;;;;;;;8.33;100.00;153499.91;4993618;28;20475;-86
2022/11/19 10:53:46;;;;;;;4.47;2.10;;;;;;;8.36;100.00;153507.69;4994541;28;20456;-86
2022/11/19 10:56:38;;;;;;;2.37;2.00;;;;;;;8.35;100.00;153503.78;4993406;28;20440;-87
2022/11/19 10:59:25;;;;;;;2.60;1.80;;;;;;;8.35;100.00;153505.06;4996136;28;20476;-86
2022/11/19 11:02:20;;;;;;;4.80;3.40;;;;;;;8.31;100.00;153494.72;4978852;28;20422;-87
2022/11/19 11:05:10;;;;;;;5.10;2.30;;;;;;;8.31;100.00;153493.47;4992817;28;20445;-86
2022/11/19 11:07:58;;;;;;;2.80;2.20;;;;;;;8.31;100.00;153494.72;4981869;28;20795;-86
2022/11/19 11:10:46;;;;;;;4.47;2.73;;;;;;;8.30;100.00;153492.16;4976999;28;20426;-85
2022/11/19 11:16:44;;;;;;;2.23;1.67;;;;;;;8.31;100.00;153494.72;4995809;28;20505;-87
2022/11/19 11:19:31;;;;;;;2.17;1.60;;;;;;;8.29;100.00;153489.56;4995604;28;20481;-86
2022/11/19 11:22:19;;;;;;;2.60;2.33;;;;;;;8.27;100.00;153484.41;5000985;28;20451;-87
2022/11/19 11:25:17;;;;;;;2.57;1.67;;;;;;;8.26;100.00;153481.75;4984202;28;20600;-87
2022/11/19 11:28:07;;;;;;;2.07;1.70;;;;;;;8.22;100.00;153471.44;4996116;28;20773;-86
2022/11/19 11:30:54;;;;;;;4.03;1.97;;;;;;;8.22;100.00;153471.44;4991661;28;20512;-86
2022/11/19 11:33:41;;;;;;;2.70;1.47;;;;;;;8.21;100.00;153468.81;4976848;28;20430;-86
2022/11/19 11:36:28;;;;;;;2.30;1.50;;;;;;;8.26;100.00;153481.75;4972182;28;20576;-86
2022/11/19 11:39:26;;;;;;;2.40;1.80;;;;;;;8.19;100.00;153463.66;4982277;28;20496;-86
2022/11/19 11:42:17;;;;;;;1.60;1.23;;;;;;;8.14;100.00;153449.44;4995474;28;20526;-86
2022/11/19 11:45:05;;;;;;;3.27;1.67;;;;;;;8.23;100.00;153472.72;4994899;28;20469;-86
2022/11/19 11:47:51;;;;;;;2.50;1.80;;;;;;;8.15;100.00;153453.34;4976710;28;20426;-87
2022/11/19 11:50:37;;;;;;;2.37;1.27;;;;;;;8.19;100.00;153463.66;4978143;28;20581;-86
2022/11/19 11:53:31;;;;;;;1.73;1.30;;;;;;;8.17;100.00;153457.19;4978594;28;20936;-86
2022/11/19 11:56:21;;;;;;;1.83;1.47;;;;;;;8.15;100.00;153452.03;4994684;28;20478;-86
2022/11/19 11:59:23;;;;;;;2.03;1.33;;;;;;;8.15;100.00;153453.34;5015065;28;20472;-87
2022/11/19 12:02:20;;;;;;;1.50;1.30;;;;;;;8.11;100.00;153443.00;4970086;28;20437;-86
2022/11/19 12:05:10;;;;;;;1.80;1.50;;;;;;;8.13;100.00;153446.88;4986711;28;20424;-86
2022/11/19 12:08:03;;;;;;;1.73;1.40;;;;;;;8.11;100.00;153443.00;4974724;28;20453;-87
2022/11/19 12:10:54;;;;;;;1.97;1.40;;;;;;;8.08;100.00;153433.94;4979907;28;20512;-86
2022/11/19 12:13:52;;;;;;;2.10;1.37;;;;;;;8.14;100.00;153450.75;5001649;28;20812;-86
2022/11/19 12:16:46;;;;;;;2.50;1.27;;;;;;;8.15;100.00;153453.34;4974405;28;20529;-87
2022/11/19 12:20:02;;;;;;;2.07;1.37;;;;;;;8.08;100.00;153435.22;4974962;28;20454;-85
2022/11/19 12:23:04;;;;;;;2.30;1.43;;;;;;;8.00;100.00;153414.53;4987664;28;20565;-86
2022/11/19 12:25:59;;;;;;;2.70;1.43;;;;;;;8.06;100.00;153428.75;4990523;28;20872;-86
2022/11/19 12:28:58;;;;;;;2.10;1.73;;;;;;;8.08;100.00;153435.22;4986207;28;20418;-86
2022/11/19 12:32:07;;;;;;;3.13;1.53;;;;;;;8.06;100.00;153430.06;4992058;28;20449;-87
2022/11/19 12:35:08;;;;;;;1.73;1.50;;;;;;;8.02;100.00;153419.75;4981090;28;21041;-86
2022/11/19 12:38:13;;;;;;;1.50;1.10;;;;;;;8.05;100.00;153427.47;4972735;28;20398;-86
2022/11/19 12:41:11;;;;;;;1.20;0.83;;;;;;;8.10;100.00;153440.38;4985806;28;20950;-86
2022/11/19 12:43:58;;;;;;;2.43;1.50;;;;;;;8.08;100.00;153435.22;4987099;28;21007;-86
2022/11/19 12:46:50;;;;;;;1.50;1.17;;;;;;;8.13;100.00;153446.88;4992918;28;20449;-86
2022/11/19 12:49:44;;;;;;;1.93;1.43;;;;;;;8.06;100.00;153428.75;5008371;28;20436;-86
2022/11/19 12:52:45;;;;;;;1.90;1.47;;;;;;;8.04;100.00;153424.91;4993564;28;20935;-86
2022/11/19 12:55:35;;;;;;;2.03;1.50;;;;;;;8.06;100.00;153428.75;4994244;28;20444;-86
2022/11/19 12:58:26;;;;;;;2.63;2.00;;;;;;;8.05;100.00;153427.47;4994393;28;20542;-86
2022/11/19 13:01:15;;;;;;;2.47;1.80;;;;;;;8.05;100.00;153426.22;4997981;28;20487;-86
2022/11/19 13:04:04;;;;;;;2.00;1.60;;;;;;;8.03;100.00;153422.31;5012580;28;20420;-86
2022/11/19 13:06:53;;;;;;;1.70;1.40;;;;;;;7.98;100.00;153410.69;4981657;28;20906;-86
2022/11/19 13:09:44;;;;;;;4.27;2.73;;;;;;;8.03;100.00;153421.00;4980495;28;20429;-86
2022/11/19 13:12:34;;;;;;;2.30;1.53;;;;;;;7.97;100.00;153406.78;4992767;28;20485;-86
2022/11/19 13:15:21;;;;;;;2.30;2.00;;;;;;;7.92;100.00;153393.88;4992991;28;20437;-85
2022/11/19 13:18:11;;;;;;;5.80;2.40;;;;;;;7.93;100.00;153396.47;4979090;28;20510;-85
2022/11/19 13:21:00;;;;;;;2.50;1.83;;;;;;;7.92;100.00;153393.88;4995858;28;21061;-85
2022/11/19 13:23:47;;;;;;;2.23;1.70;;;;;;;7.89;100.00;153387.41;4991300;28;20511;-86